Time;durP1;ratioP1;P1;durP2;ratioP2;P2;SDS_P1;SDS_P2;PMS_P1;PMS_P2;Temp;Humidity;BMP_temperature;BMP_pressure;BME280_temperature;BME280_humidity;BME280_pressure;Samples;Min_cycle;Max_cycle;Signal;HPM_P1;HPM_P2
2022/01/16 00:04:06;;;;;;;4.70;4.40;;;0.90;99.90;;;;;;5050488;28;20287;-64
2022/01/16 00:04:57;;;;;;;4.93;4.63;;;1.00;99.90;;;;;;5042648;28;20228;-63
2022/01/16 00:07:24;;;;;;;5.00;4.70;;;1.00;99.90;;;;;;5046388;28;20713;-63
2022/01/16 00:09:51;;;;;;;5.03;4.73;;;0.90;99.90;;;;;;5057097;28;20211;-62
2022/01/16 00:12:22;;;;;;;4.83;4.53;;;1.00;99.90;;;;;;5049687;28;20294;-62
2022/01/16 00:14:49;;;;;;;5.20;4.90;;;1.00;99.90;;;;;;5042555;28;20311;-62
2022/01/16 00:17:16;;;;;;;4.30;4.10;;;1.10;99.90;;;;;;5045250;28;20288;-63
2022/01/16 00:19:43;;;;;;;5.20;4.90;;;1.10;99.90;;;;;;5045086;28;20817;-63
2022/01/16 00:22:14;;;;;;;4.97;4.67;;;1.10;99.90;;;;;;5052251;28;20199;-62
2022/01/16 00:24:41;;;;;;;4.90;4.60;;;1.10;99.90;;;;;;5045378;28;20220;-64
2022/01/16 00:27:09;;;;;;;4.97;4.67;;;1.00;99.90;;;;;;5043822;28;20238;-62
2022/01/16 00:29:38;;;;;;;5.17;4.87;;;0.90;99.90;;;;;;5048893;28;20214;-63
2022/01/16 00:32:05;;;;;;;5.80;5.40;;;0.90;99.90;;;;;;5050940;28;20262;-64
2022/01/16 00:34:32;;;;;;;5.33;4.97;;;0.80;99.90;;;;;;5045261;28;20262;-63
2022/01/16 00:36:59;;;;;;;5.60;5.20;;;0.80;99.90;;;;;;5046670;28;20212;-62
2022/01/16 00:39:27;;;;;;;5.57;5.17;;;0.90;99.90;;;;;;5044337;28;20617;-64
2022/01/16 00:41:55;;;;;;;5.17;4.87;;;0.90;99.90;;;;;;5046532;28;20685;-63
2022/01/16 00:44:22;;;;;;;4.93;4.63;;;0.90;99.90;;;;;;5048913;28;20345;-63
2022/01/16 00:46:50;;;;;;;4.87;4.57;;;0.80;99.90;;;;;;5041471;28;20740;-62
2022/01/16 00:49:17;;;;;;;5.20;4.90;;;0.80;99.90;;;;;;5051566;28;20313;-63
2022/01/16 00:51:44;;;;;;;5.03;4.73;;;0.80;99.90;;;;;;5050856;28;20236;-63
2022/01/16 00:54:11;;;;;;;5.10;4.80;;;0.70;99.90;;;;;;5050307;28;20305;-64
2022/01/16 00:56:38;;;;;;;5.10;4.80;;;0.70;99.90;;;;;;5042099;28;20205;-62
2022/01/16 00:59:05;;;;;;;4.67;4.37;;;0.60;99.90;;;;;;5053563;28;20201;-62
2022/01/16 01:01:32;;;;;;;5.40;5.10;;;0.50;99.90;;;;;;5051397;28;20200;-63
2022/01/16 01:04:01;;;;;;;5.63;5.33;;;0.50;99.90;;;;;;5048568;28;20538;-63
2022/01/16 01:06:27;;;;;;;5.27;4.97;;;0.30;99.90;;;;;;5050408;28;20210;-63
2022/01/16 01:08:54;;;;;;;5.33;5.03;;;0.20;99.90;;;;;;5051656;28;20267;-63
2022/01/16 01:11:26;;;;;;;5.80;5.50;;;0.20;99.90;;;;;;5045141;28;20227;-64
2022/01/16 01:14:13;;;;;;;5.17;4.87;;;0.10;99.90;;;;;;5050287;28;20221;-63
2022/01/16 01:16:49;;;;;;;4.77;4.47;;;0.10;99.90;;;;;;5049173;28;20803;-63
2022/01/16 01:19:18;;;;;;;4.60;4.30;;;0.00;99.90;;;;;;5050343;28;20207;-62
2022/01/16 01:21:46;;;;;;;4.67;4.37;;;0.10;99.90;;;;;;5052664;28;20291;-64
2022/01/16 01:24:13;;;;;;;4.30;4.10;;;0.20;99.90;;;;;;5048820;28;20238;-64
2022/01/16 01:26:48;;;;;;;4.40;4.20;;;0.30;99.90;;;;;;5049522;28;20232;-63
2022/01/16 01:29:18;;;;;;;4.30;4.10;;;0.30;99.90;;;;;;5048981;28;20222;-64
2022/01/16 01:31:45;;;;;;;4.40;4.10;;;0.40;99.90;;;;;;5051664;28;20204;-63
2022/01/16 01:34:12;;;;;;;4.53;4.32;;;0.50;99.90;;;;;;5052076;28;20223;-64
2022/01/16 01:36:40;;;;;;;5.10;4.80;;;0.40;99.90;;;;;;5062449;28;20201;-65
2022/01/16 01:39:07;;;;;;;4.70;4.40;;;0.50;99.90;;;;;;5065647;28;20238;-63
2022/01/16 01:41:34;;;;;;;5.00;4.70;;;0.50;99.90;;;;;;5067772;28;20219;-64
2022/01/16 01:52:16;;;;;;;4.50;4.30;;;0.30;99.90;;;;;;5056331;28;20217;-63
2022/01/16 01:54:43;;;;;;;4.47;4.17;;;0.40;99.90;;;;;;5053741;28;20710;-64
2022/01/16 01:57:11;;;;;;;4.37;4.07;;;0.50;99.90;;;;;;5056671;28;20226;-63
2022/01/16 01:59:39;;;;;;;4.57;4.27;;;0.70;99.90;;;;;;5055295;28;20269;-63
2022/01/16 02:02:07;;;;;;;4.10;3.90;;;0.80;99.90;;;;;;5056319;28;20197;-62
2022/01/16 02:04:34;;;;;;;5.00;4.70;;;0.90;99.90;;;;;;5040894;28;20315;-63
2022/01/16 02:07:01;;;;;;;4.63;4.33;;;0.80;99.90;;;;;;5051663;28;20647;-63
2022/01/16 02:09:29;;;;;;;4.30;4.10;;;0.70;99.90;;;;;;5049790;28;20223;-63
2022/01/16 02:11:57;;;;;;;4.97;4.67;;;0.60;99.90;;;;;;5047534;28;20206;-62
2022/01/16 02:14:30;;;;;;;4.30;4.10;;;0.60;99.90;;;;;;5053611;28;20320;-64
2022/01/16 02:28:07;;;;;;;4.50;4.23;;;0.50;99.90;;;;;;5051117;28;20215;-64
2022/01/16 02:34:30;;;;;;;4.40;4.20;;;0.40;99.90;;;;;;5048835;28;20207;-65
2022/01/16 02:36:24;;;;;;;4.17;3.97;;;0.30;99.90;;;;;;5047795;28;20210;-63
2022/01/16 02:38:57;;;;;;;4.37;4.17;;;0.30;99.90;;;;;;5050810;28;20207;-64
2022/01/16 02:41:25;;;;;;;4.20;4.00;;;0.20;99.90;;;;;;5054742;28;20286;-64
2022/01/16 02:43:54;;;;;;;4.40;4.10;;;0.20;99.90;;;;;;5067324;28;20318;-64
2022/01/16 02:46:39;;;;;;;4.20;4.00;;;0.20;99.90;;;;;;5069704;28;20652;-64
2022/01/16 02:49:20;;;;;;;4.13;3.93;;;0.20;99.90;;;;;;5070858;28;20648;-65
2022/01/16 02:51:48;;;;;;;4.40;4.10;;;0.30;99.90;;;;;;5070862;28;20235;-63
2022/01/16 02:54:16;;;;;;;4.27;4.03;;;0.20;99.90;;;;;;5070632;28;20231;-64
2022/01/16 02:56:45;;;;;;;4.20;4.00;;;0.20;99.90;;;;;;5070627;28;20317;-62
2022/01/16 02:59:12;;;;;;;4.33;4.07;;;0.30;99.90;;;;;;5070990;28;20262;-63
2022/01/16 03:01:40;;;;;;;4.00;3.80;;;0.30;99.90;;;;;;5073110;28;20294;-65
2022/01/16 03:04:07;;;;;;;3.70;3.50;;;0.50;99.90;;;;;;5074331;28;20227;-64
2022/01/16 03:06:34;;;;;;;4.03;3.83;;;0.50;99.90;;;;;;5074370;28;20305;-63
2022/01/16 03:09:02;;;;;;;4.33;4.03;;;0.60;99.90;;;;;;5074020;28;20227;-65
2022/01/16 03:11:35;;;;;;;4.40;4.10;;;0.60;99.90;;;;;;5074666;28;20211;-63
2022/01/16 03:14:02;;;;;;;4.30;4.10;;;0.60;99.90;;;;;;5074229;28;20888;-63
2022/01/16 03:16:29;;;;;;;4.70;4.40;;;0.50;99.90;;;;;;5074935;28;20456;-63
2022/01/16 03:21:55;;;;;;;4.90;4.60;;;0.60;99.90;;;;;;5074042;28;20272;-64
2022/01/16 03:24:25;;;;;;;4.43;4.17;;;0.60;99.90;;;;;;5073913;28;20231;-63
2022/01/16 03:26:55;;;;;;;4.40;4.20;;;0.60;99.90;;;;;;5074188;28;20204;-64
2022/01/16 03:29:22;;;;;;;4.30;4.10;;;0.50;99.90;;;;;;5074338;28;20309;-64
2022/01/16 03:31:49;;;;;;;4.70;4.40;;;0.50;99.90;;;;;;5074124;28;20657;-63
2022/01/16 03:34:16;;;;;;;4.67;4.37;;;0.50;99.90;;;;;;5074184;28;20593;-63
2022/01/16 03:36:43;;;;;;;4.80;4.50;;;0.50;99.90;;;;;;5074127;28;20294;-63
2022/01/16 03:39:10;;;;;;;4.50;4.20;;;0.50;99.90;;;;;;5074108;28;20293;-64
2022/01/16 03:41:37;;;;;;;4.77;4.47;;;0.40;99.90;;;;;;5072732;28;20282;-64
2022/01/16 03:44:07;;;;;;;5.37;5.07;;;0.50;99.90;;;;;;5072623;28;20307;-63
2022/01/16 03:46:37;;;;;;;4.97;4.67;;;0.50;99.90;;;;;;5074037;28;20210;-64
2022/01/16 03:49:06;;;;;;;4.80;4.50;;;0.50;99.90;;;;;;5075549;28;20289;-63
2022/01/16 03:51:34;;;;;;;5.47;5.17;;;0.50;99.90;;;;;;5076520;28;20606;-64
2022/01/16 03:54:03;;;;;;;4.87;4.57;;;0.50;99.90;;;;;;5075636;28;20372;-63
2022/01/16 03:56:31;;;;;;;4.63;4.33;;;0.50;99.90;;;;;;5076470;28;20210;-64
2022/01/16 03:58:57;;;;;;;4.57;4.30;;;0.50;99.90;;;;;;5075429;28;20214;-64
2022/01/16 04:01:26;;;;;;;4.90;4.60;;;0.50;99.90;;;;;;5079208;28;20317;-64
2022/01/16 04:03:53;;;;;;;5.03;4.73;;;0.50;99.90;;;;;;5075770;28;20319;-63
2022/01/16 04:06:20;;;;;;;5.07;4.77;;;0.50;99.90;;;;;;5075273;28;20203;-63
2022/01/16 04:08:47;;;;;;;4.83;4.53;;;0.50;99.90;;;;;;5074397;28;20215;-64
2022/01/16 04:11:14;;;;;;;4.43;4.23;;;0.40;99.90;;;;;;5075335;28;20211;-63
2022/01/16 04:13:48;;;;;;;4.77;4.47;;;0.50;99.90;;;;;;5072286;28;20203;-63
2022/01/16 04:16:15;;;;;;;5.30;5.00;;;0.60;99.90;;;;;;5072332;28;20260;-65
2022/01/16 04:18:43;;;;;;;5.50;5.20;;;0.70;99.90;;;;;;5072323;28;20298;-63
2022/01/16 04:21:10;;;;;;;5.20;4.90;;;0.60;99.90;;;;;;5072220;28;20294;-63
2022/01/16 04:23:37;;;;;;;4.83;4.53;;;0.50;99.90;;;;;;5072100;28;20203;-63
2022/01/16 04:26:04;;;;;;;4.90;4.60;;;0.70;99.90;;;;;;5072846;28;20234;-65
2022/01/16 04:28:31;;;;;;;4.77;4.47;;;0.60;99.90;;;;;;5072698;28;20306;-66
2022/01/16 04:30:58;;;;;;;4.37;4.13;;;0.50;99.90;;;;;;5072295;28;20286;-65
2022/01/16 04:33:25;;;;;;;4.97;4.67;;;0.50;99.90;;;;;;5071747;28;20290;-64
2022/01/16 04:35:53;;;;;;;3.97;3.77;;;0.50;99.90;;;;;;5071752;28;20602;-65
2022/01/16 04:38:20;;;;;;;5.03;4.73;;;0.50;99.90;;;;;;5071856;28;20270;-63
2022/01/16 04:46:12;;;;;;;4.90;4.60;;;0.30;99.90;;;;;;5072050;28;20203;-65
2022/01/16 04:48:39;;;;;;;4.40;4.20;;;0.30;99.90;;;;;;5071563;28;20239;-63
2022/01/16 04:51:07;;;;;;;4.70;4.40;;;0.20;99.90;;;;;;5071853;28;20203;-63
2022/01/16 04:53:34;;;;;;;4.97;4.67;;;0.20;99.90;;;;;;5071571;28;20293;-63
2022/01/16 04:56:01;;;;;;;5.33;5.03;;;0.20;99.90;;;;;;5075230;28;20290;-63
2022/01/16 04:58:28;;;;;;;5.97;5.57;;;0.10;99.90;;;;;;5073721;28;20276;-63
2022/01/16 05:00:55;;;;;;;6.13;5.73;;;-0.10;99.90;;;;;;5076096;28;20249;-63
2022/01/16 05:03:22;;;;;;;6.00;5.60;;;-0.30;99.90;;;;;;5075123;28;20243;-63
2022/01/16 05:05:49;;;;;;;6.27;5.80;;;-0.40;99.90;;;;;;5073473;28;20231;-64
2022/01/16 05:08:17;;;;;;;5.27;4.97;;;-0.50;99.90;;;;;;5078866;28;20274;-63
2022/01/16 05:10:44;;;;;;;5.40;5.00;;;-0.60;99.90;;;;;;5086413;28;20230;-64
2022/01/16 05:13:29;;;;;;;5.40;5.10;;;-0.80;99.90;;;;;;5080054;28;20203;-64
2022/01/16 05:18:42;;;;;;;5.43;5.13;;;-0.90;99.90;;;;;;5076363;28;20222;-64
2022/01/16 05:21:09;;;;;;;5.80;5.40;;;-0.90;99.90;;;;;;5074325;28;20206;-63
2022/01/16 05:23:38;;;;;;;5.00;4.70;;;-0.90;99.90;;;;;;5075384;28;20199;-64
2022/01/16 05:26:06;;;;;;;4.67;4.37;;;-0.90;99.90;;;;;;5061236;28;20207;-62
2022/01/16 05:28:33;;;;;;;4.57;4.27;;;-1.00;99.90;;;;;;5061726;28;20199;-63
2022/01/16 05:31:00;;;;;;;3.67;3.47;;;-1.00;99.90;;;;;;5065677;28;20235;-63
2022/01/16 05:33:26;;;;;;;4.57;4.27;;;-1.00;99.90;;;;;;5059237;28;20213;-64
2022/01/16 05:35:53;;;;;;;4.43;4.17;;;-1.00;99.90;;;;;;5056745;28;20234;-64
2022/01/16 05:38:20;;;;;;;3.83;3.63;;;-1.00;99.90;;;;;;5056567;28;20223;-64
2022/01/16 05:40:49;;;;;;;3.60;3.40;;;-0.90;99.90;;;;;;5053040;28;20227;-63
2022/01/16 05:43:16;;;;;;;3.80;3.60;;;-0.90;99.90;;;;;;5053330;28;20202;-64
2022/01/16 05:45:42;;;;;;;3.93;3.73;;;-0.80;99.90;;;;;;5053883;28;20224;-64
2022/01/16 05:48:09;;;;;;;3.97;3.77;;;-0.70;99.90;;;;;;5057096;28;20209;-63
2022/01/16 05:50:36;;;;;;;4.10;3.90;;;-0.60;99.90;;;;;;5050545;28;20742;-64
2022/01/16 05:53:03;;;;;;;3.67;3.47;;;-0.50;99.90;;;;;;5052748;28;20201;-65
2022/01/16 05:55:36;;;;;;;3.80;3.60;;;-0.50;99.90;;;;;;5057091;28;20729;-62
2022/01/16 05:58:04;;;;;;;4.30;4.07;;;-0.50;99.90;;;;;;5059104;28;20204;-62
2022/01/16 06:00:31;;;;;;;4.47;4.17;;;-0.60;99.90;;;;;;5065224;28;20584;-63
2022/01/16 06:02:58;;;;;;;4.80;4.50;;;-0.70;99.90;;;;;;5065271;28;20210;-64
2022/01/16 06:05:25;;;;;;;5.33;5.00;;;-0.70;99.90;;;;;;5066022;28;20725;-63
2022/01/16 06:07:56;;;;;;;5.07;4.77;;;-0.70;99.90;;;;;;5063877;28;20200;-64
2022/01/16 06:10:23;;;;;;;4.67;4.37;;;-0.60;99.90;;;;;;5063381;28;20219;-64
2022/01/16 06:12:51;;;;;;;5.07;4.77;;;-0.30;99.90;;;;;;5064745;28;20214;-63
2022/01/16 06:15:19;;;;;;;5.20;4.90;;;-0.20;99.90;;;;;;5062701;28;20633;-64
2022/01/16 06:17:46;;;;;;;5.67;5.27;;;-0.10;99.90;;;;;;5058882;28;20200;-63
2022/01/16 06:20:14;;;;;;;5.30;4.90;;;-0.10;99.90;;;;;;5060907;28;20287;-67
2022/01/16 06:22:41;;;;;;;5.90;5.50;;;-0.20;99.90;;;;;;5057034;28;20348;-62
2022/01/16 06:25:09;;;;;;;5.53;5.23;;;-0.20;99.90;;;;;;5061689;28;20302;-62
2022/01/16 06:27:36;;;;;;;5.73;5.40;;;-0.10;99.90;;;;;;5070993;28;20203;-64
2022/01/16 06:30:05;;;;;;;4.37;4.17;;;0.00;99.90;;;;;;5070612;28;20238;-62
2022/01/16 06:32:33;;;;;;;3.90;3.70;;;-0.20;99.90;;;;;;5056109;28;20204;-62
2022/01/16 06:35:00;;;;;;;4.23;4.03;;;-0.30;99.90;;;;;;5066606;28;20215;-63
2022/01/16 06:37:27;;;;;;;3.60;3.40;;;-0.40;99.90;;;;;;5069032;28;20234;-62
2022/01/16 06:39:54;;;;;;;3.90;3.70;;;-0.30;99.90;;;;;;5069582;28;20195;-63
2022/01/16 06:42:21;;;;;;;4.20;3.90;;;-0.30;99.90;;;;;;5070233;28;20662;-62
2022/01/16 06:44:47;;;;;;;3.63;3.43;;;-0.40;99.90;;;;;;5070017;28;20432;-64
2022/01/16 06:47:14;;;;;;;4.00;3.70;;;-0.30;99.90;;;;;;5070456;28;20211;-62
2022/01/16 06:49:42;;;;;;;4.07;3.83;;;-0.30;99.90;;;;;;5070683;28;20223;-63
2022/01/16 06:52:09;;;;;;;3.90;3.70;;;-0.30;99.90;;;;;;5071138;28;20210;-62
2022/01/16 06:54:36;;;;;;;3.80;3.60;;;-0.30;99.90;;;;;;5070770;28;20237;-64
2022/01/16 06:57:04;;;;;;;4.20;3.90;;;-0.40;99.90;;;;;;5071747;28;20576;-62
2022/01/16 06:59:32;;;;;;;4.07;3.87;;;-0.40;99.90;;;;;;5071284;28;20210;-62
2022/01/16 07:01:59;;;;;;;4.27;4.00;;;-0.40;99.90;;;;;;5071066;28;20556;-63
2022/01/16 07:04:26;;;;;;;3.90;3.70;;;-0.40;99.90;;;;;;5071553;28;20227;-62
2022/01/16 07:06:54;;;;;;;4.33;4.13;;;-0.40;99.90;;;;;;5071957;28;20306;-62
2022/01/16 07:09:21;;;;;;;4.07;3.87;;;-0.40;99.90;;;;;;5071350;28;20231;-63
2022/01/16 07:11:48;;;;;;;4.60;4.30;;;-0.40;99.90;;;;;;5072470;28;20275;-62
2022/01/16 07:14:15;;;;;;;4.50;4.20;;;-0.40;99.90;;;;;;5071187;28;20319;-64
2022/01/16 07:16:42;;;;;;;4.67;4.37;;;-0.40;99.90;;;;;;5071706;28;20203;-62
2022/01/16 07:19:09;;;;;;;4.73;4.43;;;-0.50;99.90;;;;;;5071897;28;20573;-63
2022/01/16 07:21:36;;;;;;;4.20;4.00;;;-0.40;99.90;;;;;;5071801;28;20208;-63
2022/01/16 07:24:05;;;;;;;3.90;3.70;;;-0.30;99.90;;;;;;5071822;28;20270;-63
2022/01/16 07:26:31;;;;;;;3.80;3.60;;;-0.30;99.90;;;;;;5072492;28;20781;-63
2022/01/16 07:28:58;;;;;;;3.90;3.70;;;-0.20;99.90;;;;;;5072859;28;20662;-62
2022/01/16 07:31:25;;;;;;;4.30;4.00;;;-0.30;99.90;;;;;;5072177;28;20282;-64
2022/01/16 07:33:53;;;;;;;4.47;4.17;;;-0.40;99.90;;;;;;5072648;28;20338;-62
2022/01/16 07:36:20;;;;;;;4.27;4.07;;;-0.40;99.90;;;;;;5081629;28;20254;-63
2022/01/16 07:38:46;;;;;;;4.13;3.83;;;-0.40;99.90;;;;;;5087792;28;20238;-64
2022/01/16 07:41:15;;;;;;;3.90;3.70;;;-0.30;99.90;;;;;;5087772;28;20245;-63
2022/01/16 07:43:41;;;;;;;3.80;3.60;;;-0.30;99.90;;;;;;5089132;28;20298;-65
2022/01/16 07:46:08;;;;;;;4.03;3.83;;;-0.10;99.90;;;;;;5084301;28;20203;-62
2022/01/16 07:48:35;;;;;;;4.13;3.93;;;0.10;99.90;;;;;;5073851;28;20223;-63
2022/01/16 07:51:04;;;;;;;4.60;4.30;;;0.20;99.90;;;;;;5075945;28;20284;-62
2022/01/16 07:53:30;;;;;;;4.80;4.50;;;0.10;99.90;;;;;;5075911;28;20207;-61
2022/01/16 07:55:57;;;;;;;5.30;5.00;;;0.00;99.90;;;;;;5073508;28;20230;-63
2022/01/16 07:58:25;;;;;;;5.10;4.80;;;-0.10;99.90;;;;;;5068551;28;20203;-62
2022/01/16 08:00:52;;;;;;;5.30;5.00;;;-0.20;99.90;;;;;;5067520;28;20227;-62
2022/01/16 08:03:19;;;;;;;4.77;4.47;;;-0.30;99.90;;;;;;5053950;28;20200;-61
2022/01/16 08:05:47;;;;;;;4.87;4.57;;;-0.30;99.90;;;;;;5052163;28;20573;-62
2022/01/16 08:08:14;;;;;;;4.60;4.30;;;-0.30;99.90;;;;;;5053996;28;20225;-63
2022/01/16 08:10:41;;;;;;;4.30;4.10;;;-0.20;99.90;;;;;;5055699;28;20220;-62
2022/01/16 08:13:08;;;;;;;4.57;4.27;;;0.00;99.90;;;;;;5059259;28;20286;-62
2022/01/16 08:15:36;;;;;;;4.60;4.30;;;0.10;99.90;;;;;;5067477;28;20227;-63
2022/01/16 08:18:03;;;;;;;4.63;4.33;;;0.20;99.90;;;;;;5071785;28;20568;-62
2022/01/16 08:20:30;;;;;;;5.10;4.70;;;0.30;99.90;;;;;;5056079;28;20641;-62
2022/01/16 08:22:57;;;;;;;5.10;4.80;;;0.40;99.90;;;;;;5050764;28;20530;-62
2022/01/16 08:25:25;;;;;;;4.50;4.20;;;0.50;99.90;;;;;;5054875;28;20636;-63
2022/01/16 08:27:52;;;;;;;4.90;4.60;;;0.60;99.90;;;;;;5047960;28;20200;-61
2022/01/16 08:30:19;;;;;;;4.50;4.20;;;0.60;99.90;;;;;;5056518;28;20246;-61
2022/01/16 08:32:47;;;;;;;4.77;4.47;;;0.60;99.90;;;;;;5053997;28;20199;-63
2022/01/16 08:35:14;;;;;;;4.67;4.37;;;0.60;99.90;;;;;;5063250;28;20220;-62
2022/01/16 08:37:41;;;;;;;4.80;4.50;;;0.40;99.90;;;;;;5068930;28;20286;-62
2022/01/16 08:40:10;;;;;;;4.60;4.30;;;0.50;99.90;;;;;;5061404;28;20253;-62
2022/01/16 08:42:37;;;;;;;4.10;3.90;;;0.50;99.90;;;;;;5058687;28;20196;-63
2022/01/16 08:45:04;;;;;;;4.83;4.53;;;0.60;99.90;;;;;;5072792;28;20223;-62
2022/01/16 08:47:31;;;;;;;5.10;4.80;;;0.60;99.90;;;;;;5075324;28;20852;-64
2022/01/16 08:50:02;;;;;;;5.07;4.77;;;0.70;99.90;;;;;;5080204;28;20229;-64
2022/01/16 08:52:29;;;;;;;4.87;4.57;;;0.60;99.90;;;;;;5086519;28;20199;-63
2022/01/16 08:54:56;;;;;;;4.70;4.40;;;0.60;99.90;;;;;;5089755;28;20254;-62
2022/01/16 08:57:23;;;;;;;5.03;4.73;;;0.60;99.90;;;;;;5086578;28;20203;-62
2022/01/16 08:59:49;;;;;;;4.87;4.57;;;0.50;99.90;;;;;;5075798;28;20267;-64
2022/01/16 09:02:16;;;;;;;4.33;4.13;;;0.50;99.90;;;;;;5077194;28;20290;-64
2022/01/16 09:04:43;;;;;;;4.30;4.10;;;0.60;99.90;;;;;;5074406;28;20223;-62
2022/01/16 09:07:11;;;;;;;4.67;4.37;;;0.60;99.90;;;;;;5078633;28;20234;-63
2022/01/16 09:09:38;;;;;;;5.03;4.73;;;0.70;99.90;;;;;;5084431;28;20259;-64
2022/01/16 09:12:06;;;;;;;5.07;4.70;;;0.70;99.90;;;;;;5081969;28;20875;-62
2022/01/16 09:14:33;;;;;;;4.70;4.40;;;0.70;99.90;;;;;;5084438;28;20311;-63
2022/01/16 09:17:02;;;;;;;4.60;4.30;;;0.80;99.90;;;;;;5086896;28;20208;-62
2022/01/16 09:19:29;;;;;;;4.20;4.00;;;0.90;99.90;;;;;;5084580;28;20233;-62
2022/01/16 09:21:56;;;;;;;5.53;5.13;;;1.00;99.90;;;;;;5077973;28;20211;-63
2022/01/16 09:24:24;;;;;;;4.83;4.53;;;1.00;99.90;;;;;;5072864;28;20310;-62
2022/01/16 09:26:54;;;;;;;4.80;4.50;;;1.20;99.90;;;;;;5072162;28;20200;-63
2022/01/16 09:29:21;;;;;;;4.90;4.60;;;1.30;99.90;;;;;;5072495;28;20203;-61
2022/01/16 09:31:48;;;;;;;4.83;4.53;;;1.40;99.90;;;;;;5071928;28;20235;-61
2022/01/16 09:34:15;;;;;;;5.37;4.97;;;1.50;99.90;;;;;;5072011;28;20813;-61
2022/01/16 09:36:42;;;;;;;4.90;4.60;;;1.60;99.90;;;;;;5073174;28;20241;-62
2022/01/16 09:39:09;;;;;;;4.53;4.33;;;1.50;99.90;;;;;;5072863;28;20290;-63
2022/01/16 09:41:38;;;;;;;4.33;4.13;;;1.50;99.90;;;;;;5072169;28;20642;-63
2022/01/16 09:44:05;;;;;;;4.60;4.30;;;1.50;99.90;;;;;;5071764;28;20310;-62
2022/01/16 09:46:32;;;;;;;4.70;4.40;;;1.50;99.90;;;;;;5072515;28;20344;-61
2022/01/16 09:48:59;;;;;;;5.13;4.83;;;1.60;99.90;;;;;;5072965;28;20207;-61
2022/01/16 09:51:26;;;;;;;4.60;4.30;;;1.70;99.90;;;;;;5072229;28;20254;-61
2022/01/16 09:53:53;;;;;;;4.80;4.50;;;1.90;99.90;;;;;;5071951;28;20634;-63
2022/01/16 09:56:19;;;;;;;4.87;4.57;;;2.00;99.90;;;;;;5072618;28;20287;-63
2022/01/16 09:58:48;;;;;;;4.77;4.47;;;2.20;99.90;;;;;;5071993;28;20298;-62
2022/01/16 10:01:15;;;;;;;4.90;4.60;;;2.40;99.90;;;;;;5071742;28;20303;-63
2022/01/16 10:03:43;;;;;;;4.53;4.33;;;2.60;99.90;;;;;;5072100;28;20230;-62
2022/01/16 10:06:14;;;;;;;4.13;3.93;;;2.90;99.90;;;;;;5071842;28;20203;-61
2022/01/16 10:08:42;;;;;;;4.00;3.80;;;3.10;99.90;;;;;;5071555;28;20286;-61
2022/01/16 10:11:29;;;;;;;4.23;4.03;;;3.20;99.90;;;;;;5069814;28;20383;-62
2022/01/16 10:14:01;;;;;;;4.67;4.37;;;3.30;99.90;;;;;;5070901;28;20222;-62
2022/01/16 10:16:31;;;;;;;4.47;4.27;;;3.30;99.90;;;;;;5069697;28;20210;-61
2022/01/16 10:18:59;;;;;;;4.60;4.30;;;3.30;99.90;;;;;;5062908;28;20290;-63
2022/01/16 10:21:36;;;;;;;4.30;4.10;;;3.40;99.90;;;;;;5073702;28;20666;-62
2022/01/16 10:24:20;;;;;;;4.20;4.00;;;3.40;99.90;;;;;;5070905;28;20671;-63
2022/01/16 10:26:48;;;;;;;4.70;4.40;;;3.50;99.90;;;;;;5071266;28;20636;-62
2022/01/16 10:29:18;;;;;;;4.47;4.17;;;3.40;99.90;;;;;;5059857;28;21348;-60
2022/01/16 10:31:45;;;;;;;4.20;4.00;;;3.40;99.90;;;;;;5049729;28;20331;-64
2022/01/16 10:34:31;;;;;;;4.53;4.23;;;3.40;99.90;;;;;;5050601;28;20310;-62
2022/01/16 10:36:59;;;;;;;4.27;4.07;;;3.50;99.90;;;;;;5049640;28;20207;-62
2022/01/16 10:39:26;;;;;;;4.80;4.50;;;3.40;99.90;;;;;;5049848;28;20207;-63
2022/01/16 10:42:16;;;;;;;4.20;4.00;;;3.40;99.90;;;;;;5049645;28;20225;-63
2022/01/16 10:44:45;;;;;;;4.80;4.50;;;3.40;99.90;;;;;;5052142;28;20223;-62
2022/01/16 10:47:33;;;;;;;4.47;4.27;;;3.40;99.90;;;;;;5054475;28;20275;-61
2022/01/16 10:50:06;;;;;;;4.67;4.37;;;3.40;99.90;;;;;;5054405;28;20631;-62
2022/01/16 10:52:33;;;;;;;4.73;4.43;;;3.50;99.90;;;;;;5050029;28;20261;-62
2022/01/16 10:55:10;;;;;;;4.53;4.33;;;3.60;99.90;;;;;;5054589;28;20224;-62
2022/01/16 10:57:37;;;;;;;4.30;4.10;;;3.60;99.90;;;;;;5052934;28;20902;-62
2022/01/16 11:00:17;;;;;;;4.43;4.23;;;3.70;99.90;;;;;;5055792;28;20204;-63
2022/01/16 11:02:46;;;;;;;3.87;3.67;;;3.80;99.90;;;;;;5050668;28;20254;-62
2022/01/16 11:05:15;;;;;;;4.67;4.37;;;3.80;99.90;;;;;;5054248;28;20306;-63
2022/01/16 11:07:43;;;;;;;4.60;4.33;;;3.90;99.90;;;;;;5053712;28;20283;-61
2022/01/16 11:10:26;;;;;;;4.70;4.40;;;4.00;99.90;;;;;;5048434;28;20212;-63
2022/01/16 11:12:54;;;;;;;4.43;4.23;;;4.00;99.90;;;;;;5051027;28;20203;-65
2022/01/16 11:15:23;;;;;;;5.10;4.80;;;4.10;99.90;;;;;;5053420;28;20306;-62
2022/01/16 11:17:50;;;;;;;5.03;4.73;;;4.10;99.90;;;;;;5050717;28;20220;-62
2022/01/16 11:20:23;;;;;;;5.20;4.90;;;4.00;99.90;;;;;;5052244;28;20210;-63
2022/01/16 11:22:58;;;;;;;5.10;4.80;;;4.10;99.90;;;;;;5055231;28;20200;-63
2022/01/16 11:25:33;;;;;;;5.00;4.70;;;4.10;99.90;;;;;;5051374;28;20310;-63
2022/01/16 11:28:04;;;;;;;5.07;4.77;;;4.20;99.90;;;;;;5052947;28;20203;-63
2022/01/16 11:30:34;;;;;;;5.40;5.00;;;4.30;99.90;;;;;;5051713;28;20235;-62
2022/01/16 11:33:02;;;;;;;5.67;5.37;;;4.50;99.90;;;;;;5054493;28;20528;-62
2022/01/16 11:35:30;;;;;;;5.97;5.57;;;4.50;99.90;;;;;;5054736;28;20299;-62
2022/01/16 11:37:58;;;;;;;5.43;5.13;;;4.30;99.90;;;;;;5055031;28;20287;-62
2022/01/16 11:40:29;;;;;;;4.90;4.63;;;4.20;99.90;;;;;;5057941;28;21488;-64
2022/01/16 11:43:19;;;;;;;5.20;4.90;;;4.30;99.90;;;;;;5054649;28;20195;-62
2022/01/16 11:45:50;;;;;;;5.13;4.83;;;4.40;99.90;;;;;;5055821;28;20312;-62
2022/01/16 11:48:37;;;;;;;5.50;5.20;;;4.40;99.90;;;;;;5054408;28;20208;-61
2022/01/16 11:51:04;;;;;;;5.03;4.77;;;4.50;99.90;;;;;;5053975;28;20278;-65
2022/01/16 11:54:08;;;;;;;5.13;4.83;;;4.50;99.90;;;;;;5050024;28;20279;-63
2022/01/16 11:56:52;;;;;;;4.80;4.53;;;4.50;99.90;;;;;;5052982;28;20246;-63
2022/01/16 11:59:21;;;;;;;4.90;4.60;;;4.50;99.90;;;;;;5053628;28;20204;-64
2022/01/16 12:01:52;;;;;;;4.50;4.30;;;4.60;99.90;;;;;;5053304;28;20203;-63
2022/01/16 12:04:57;;;;;;;5.33;5.03;;;4.50;99.90;;;;;;5052190;28;20247;-63
2022/01/16 12:08:00;;;;;;;5.00;4.70;;;4.40;99.90;;;;;;5050829;28;20283;-61
2022/01/16 12:10:50;;;;;;;5.30;5.00;;;4.40;99.90;;;;;;5049751;28;20212;-61
2022/01/16 12:13:49;;;;;;;5.50;5.20;;;4.40;99.90;;;;;;5061994;28;20207;-62
2022/01/16 12:16:42;;;;;;;5.70;5.40;;;4.40;99.90;;;;;;5070325;28;20273;-62
2022/01/16 12:19:47;;;;;;;4.90;4.60;;;4.40;99.90;;;;;;5064836;28;20245;-62
2022/01/16 12:22:33;;;;;;;4.70;4.40;;;4.40;99.90;;;;;;5051667;28;20235;-62
2022/01/16 12:25:08;;;;;;;4.80;4.50;;;4.50;99.90;;;;;;5046411;28;20796;-62
2022/01/16 12:27:49;;;;;;;5.00;4.70;;;4.60;99.90;;;;;;5051952;28;20825;-61
2022/01/16 12:30:38;;;;;;;4.40;4.10;;;4.60;99.90;;;;;;5051888;28;20295;-64
2022/01/16 12:33:25;;;;;;;5.40;5.10;;;4.60;99.90;;;;;;5049307;28;20585;-62
2022/01/16 12:36:10;;;;;;;5.30;5.00;;;4.70;99.90;;;;;;5040580;28;20233;-61
2022/01/16 12:38:52;;;;;;;5.60;5.30;;;4.70;99.90;;;;;;5056300;28;20210;-61
2022/01/16 12:41:25;;;;;;;5.37;5.07;;;4.70;99.90;;;;;;5052188;28;20210;-62
2022/01/16 12:43:55;;;;;;;5.50;5.20;;;4.70;99.90;;;;;;5052352;28;20200;-63
2022/01/16 12:46:26;;;;;;;4.77;4.57;;;4.70;99.90;;;;;;5052679;28;20583;-61
2022/01/16 12:48:54;;;;;;;5.40;5.10;;;4.70;99.90;;;;;;5050748;28;20210;-63
2022/01/16 12:51:26;;;;;;;5.57;5.27;;;4.70;99.90;;;;;;5066204;28;20708;-62
2022/01/16 12:53:55;;;;;;;5.30;5.00;;;4.70;99.90;;;;;;5074376;28;20277;-64
2022/01/16 12:56:25;;;;;;;5.90;5.60;;;4.70;99.90;;;;;;5075133;28;20771;-62
2022/01/16 12:58:56;;;;;;;5.83;5.53;;;4.70;99.90;;;;;;5074455;28;20755;-63
2022/01/16 13:01:24;;;;;;;5.73;5.43;;;4.60;99.90;;;;;;5074670;28;20295;-63
2022/01/16 13:03:51;;;;;;;5.63;5.33;;;4.70;99.90;;;;;;5074482;28;20203;-63
2022/01/16 13:06:20;;;;;;;6.03;5.70;;;4.70;99.90;;;;;;5073557;28;20293;-62
2022/01/16 13:08:57;;;;;;;5.40;5.10;;;4.70;99.90;;;;;;5073551;28;20623;-63
2022/01/16 13:11:25;;;;;;;5.50;5.20;;;4.70;99.90;;;;;;5073385;28;20914;-63
2022/01/16 13:13:52;;;;;;;5.80;5.50;;;4.70;99.90;;;;;;5069664;28;20207;-64
2022/01/16 13:16:20;;;;;;;5.57;5.27;;;4.70;99.90;;;;;;5055356;28;20230;-64
2022/01/16 13:19:08;;;;;;;5.83;5.53;;;4.70;99.90;;;;;;5057764;28;20218;-64
2022/01/16 13:21:44;;;;;;;5.07;4.77;;;4.70;99.90;;;;;;5051740;28;20200;-63
2022/01/16 13:24:27;;;;;;;5.73;5.40;;;4.80;99.90;;;;;;5057613;28;20232;-62
2022/01/16 13:26:55;;;;;;;5.90;5.60;;;4.80;99.90;;;;;;5057073;28;20287;-62
2022/01/16 13:29:23;;;;;;;5.10;4.80;;;4.80;99.90;;;;;;5061724;28;20657;-62
2022/01/16 13:31:51;;;;;;;5.57;5.27;;;4.80;99.90;;;;;;5055126;28;20228;-62
2022/01/16 13:34:20;;;;;;;5.43;5.13;;;4.80;99.90;;;;;;5054566;28;20326;-64
2022/01/16 13:36:55;;;;;;;4.93;4.63;;;4.80;99.90;;;;;;5057334;28;20196;-64
2022/01/16 13:39:37;;;;;;;5.13;4.83;;;4.80;99.90;;;;;;5056046;28;20275;-64
2022/01/16 13:42:14;;;;;;;5.40;5.10;;;4.90;99.90;;;;;;5065459;28;20207;-65
2022/01/16 13:44:53;;;;;;;5.10;4.80;;;4.90;99.90;;;;;;5072201;28;20247;-60